Durango, CO

4:04 PM MST on December 27, 2014 (GMT -0700)
Falls Creek Ranch | Change Station
CLOSE
Current Station
Personal Weather Station
Location: Durango, CO
Elevation: 7560 ft
Nearby Weather Stations

Elev 7560 ft 37.29 °N, 107.87 °W | Updated 40 seconds ago

Clear
Clear
19.5 °F
Feels Like 20 °F
N
1.0
Wind Variable Wind from SSW

Today
High -- | Low -- °F
--% Chance of Precip.
Yesterday
High -- | Low -- °F
Precip. -- in
7:24 AM 5:00 PM
Waxing Crescent, 41% visible
Pressure 30.41 in
Visibility 10.0 miles
Clouds Scattered Clouds 3100 ft
Windchill 20 °F
Dew Point 12 °F
Humidity 71%
Rainfall 0.11 in
Snow Depth Not available.
UV 0 out of 12
Pollen .40 out of 12
Air Quality Not available.
Flu Activity Not available.
METAR KDRO 272253Z AUTO 20004KT 10SM SCT031 M05/M11 A3018 RMK AO2 SLP297 T10501111

More Conditions Fewer Conditions

Pressure 30.41 in
Visibility 10.0 miles
Clouds Scattered Clouds 3100 ft
Windchill 20 °F
Dew Point 12 °F
Humidity 71%
Rainfall 0.11 in
Snow Depth Not available.
UV 0 out of 12
Pollen .40 out of 12
Air Quality Not available.
Flu Activity Not available.
METAR KDRO 272253Z AUTO 20004KT 10SM SCT031 M05/M11 A3018 RMK AO2 SLP297 T10501111

More Conditions Fewer Conditions

10-Day Weather Forecast

Almanac

Astronomy

Dec. 27, 2014 Rise Set
Actual Time
Civil Twilight
Nautical Twilight
Astronomical Twilight
Moon
Length of Visible Light
Length of Day
Tomorrow will be .
, % of the Moon is Illuminated

Today's Extremes

State Highs State Lows

Community

WunderPhotos

Upload Photos

1,781,100 photos uploaded!

WunderBlogs® & News

Nearby

Air Quality

  Air Quality AQ Index Pollutant
Not available.

Snow Depth

Station Depth Elevation

Earthquake Activity

City Distance Mag. Time & Date
Minimum magnitude displayed is 2.5.

Coastal Water Temperatures

Place Temperature

Nearby Weather Stations